createdAt,value
2018-11-21T05:01:25.552Z,28.70
2018-11-21T05:04:06.790Z,28.10
2018-11-21T05:06:47.720Z,36.90
2018-11-21T05:09:29.188Z,34.17
2018-11-21T05:12:09.919Z,34.20
2018-11-21T05:14:50.362Z,37.93
2018-11-21T05:17:31.016Z,30.20
2018-11-21T05:20:12.263Z,32.63
2018-11-21T05:22:53.164Z,32.13
2018-11-21T05:25:22.034Z,30.67
2018-11-21T05:28:09.734Z,32.33
2018-11-21T05:30:57.297Z,32.73
2018-11-21T05:33:44.856Z,26.80
2018-11-21T05:36:32.722Z,25.97
2018-11-21T05:39:20.302Z,34.37
2018-11-21T05:42:07.954Z,33.40
2018-11-21T05:44:55.483Z,30.20
2018-11-21T05:47:43.305Z,36.23
2018-11-21T05:50:31.156Z,31.37
2018-11-21T05:53:18.681Z,30.53
2018-11-21T05:56:06.513Z,30.00
2018-11-21T05:58:54.155Z,32.60
2018-11-21T06:01:41.830Z,27.33
2018-11-21T06:04:29.437Z,30.20
2018-11-21T06:07:17.054Z,29.20
2018-11-21T06:10:06.427Z,26.50
2018-11-21T06:12:54.511Z,30.00
2018-11-21T06:15:42.196Z,31.03
2018-11-21T06:18:29.733Z,30.37
2018-11-21T06:21:17.689Z,30.57
2018-11-21T06:24:05.377Z,31.87
2018-11-21T06:27:12.507Z,29.90
2018-11-21T06:30:02.122Z,32.33
2018-11-21T06:32:48.611Z,32.37
2018-11-21T06:35:42.078Z,28.67
2018-11-21T06:38:29.640Z,30.33
2018-11-21T06:41:17.354Z,27.30
2018-11-21T06:44:05.022Z,29.93
2018-11-21T06:46:46.290Z,30.53
2018-11-21T06:49:26.549Z,27.27
2018-11-21T06:52:06.868Z,30.17
2018-11-21T06:54:49.291Z,30.67
2018-11-21T06:57:18.614Z,32.27
2018-11-21T07:00:07.003Z,27.83
2018-11-21T07:02:54.948Z,29.20
2018-11-21T07:05:43.146Z,32.93
2018-11-21T07:08:30.693Z,27.50
2018-11-21T07:11:18.258Z,34.33
2018-11-21T07:14:07.270Z,28.23
2018-11-21T07:16:54.017Z,25.23
2018-11-21T07:19:41.427Z,29.23
2018-11-21T07:22:29.184Z,28.47
2018-11-21T07:25:17.831Z,29.97
2018-11-21T07:28:05.453Z,33.43
2018-11-21T07:30:53.046Z,31.90
2018-11-21T07:33:46.363Z,26.17
2018-11-21T07:36:28.429Z,32.23
2018-11-21T07:39:16.254Z,32.43
2018-11-21T07:42:04.333Z,28.87
2018-11-21T07:44:52.319Z,28.67
2018-11-21T07:47:40.443Z,25.57
2018-11-21T07:50:28.264Z,29.50
2018-11-21T07:53:16.080Z,32.77
2018-11-21T07:56:03.752Z,28.00
2018-11-21T07:58:51.299Z,31.30
2018-11-21T08:01:58.117Z,30.17
2018-11-21T08:05:04.887Z,28.20
2018-11-21T08:08:02.772Z,24.03
2018-11-21T08:11:02.371Z,29.10
2018-11-21T08:14:02.259Z,31.47
2018-11-21T08:17:02.144Z,23.70
2018-11-21T08:20:01.852Z,26.23
2018-11-21T08:23:01.279Z,23.57
2018-11-21T08:26:01.497Z,27.90
2018-11-21T08:28:42.597Z,24.00
2018-11-21T08:31:23.502Z,27.37
2018-11-21T08:34:03.846Z,27.73
2018-11-21T08:36:44.478Z,27.87
2018-11-21T08:39:25.846Z,33.63
2018-11-21T08:41:54.151Z,27.37
2018-11-21T08:44:41.726Z,30.60
2018-11-21T08:47:29.609Z,31.60
2018-11-21T08:50:17.427Z,21.67
2018-11-21T08:53:05.417Z,23.00
2018-11-21T08:55:53.288Z,28.40
2018-11-21T08:58:40.864Z,23.83
2018-11-21T09:01:28.475Z,23.50
2018-11-21T09:04:16.033Z,27.00
2018-11-21T09:07:03.623Z,26.70
2018-11-21T09:09:51.179Z,32.77
2018-11-21T09:12:38.881Z,26.93
2018-11-21T09:15:26.523Z,25.60
2018-11-21T09:18:14.683Z,27.43
2018-11-21T09:21:02.191Z,27.93
2018-11-21T09:23:50.006Z,28.03
2018-11-21T09:26:37.623Z,26.27
2018-11-21T09:29:25.437Z,28.47
2018-11-21T09:32:13.027Z,24.00
2018-11-21T09:35:00.648Z,28.77
2018-11-21T09:37:48.369Z,31.40
2018-11-21T09:40:35.956Z,28.60
2018-11-21T09:43:23.585Z,29.00
2018-11-21T09:46:11.231Z,32.53
2018-11-21T09:49:01.520Z,29.30
2018-11-21T09:51:49.117Z,33.73
2018-11-21T09:54:36.826Z,30.97
2018-11-21T09:57:24.422Z,37.40
2018-11-21T10:00:31.675Z,35.57
2018-11-21T10:03:29.423Z,29.20
2018-11-21T10:06:18.178Z,32.03
2018-11-21T10:09:10.216Z,31.37
2018-11-21T10:11:57.786Z,33.43
2018-11-21T10:14:45.401Z,30.77
2018-11-21T10:17:33.216Z,31.60
2018-11-21T10:20:21.263Z,30.60
2018-11-21T10:23:08.843Z,28.90
2018-11-21T10:25:56.677Z,35.37
2018-11-21T10:28:44.820Z,31.10
2018-11-21T10:31:32.440Z,31.63
2018-11-21T10:34:20.014Z,28.33
2018-11-21T10:37:07.615Z,29.80
2018-11-21T10:39:55.441Z,36.20
2018-11-21T10:42:43.318Z,29.77
2018-11-21T10:45:30.883Z,30.97
2018-11-21T10:48:18.479Z,27.40
2018-11-21T10:51:06.145Z,26.23
2018-11-21T10:53:53.731Z,30.50
2018-11-21T10:56:41.466Z,30.77
2018-11-21T10:59:29.022Z,27.33
2018-11-21T11:02:22.943Z,25.57
2018-11-21T11:05:29.732Z,27.13
2018-11-21T11:08:36.535Z,25.53
2018-11-21T11:11:44.035Z,27.73
2018-11-21T11:14:50.849Z,24.80
2018-11-21T11:17:59.602Z,25.87
2018-11-21T11:21:04.886Z,22.87
2018-11-21T11:24:11.667Z,23.67
2018-11-21T11:27:18.454Z,23.60
2018-11-21T11:30:25.223Z,23.90
2018-11-21T11:33:32.007Z,27.83
2018-11-21T11:36:39.020Z,20.60
2018-11-21T11:39:45.797Z,22.47
2018-11-21T11:42:52.549Z,23.10
2018-11-21T11:45:59.326Z,22.27
2018-11-21T11:49:06.176Z,26.50
2018-11-21T11:52:13.003Z,21.37
2018-11-21T11:55:19.809Z,22.50
2018-11-21T11:58:07.101Z,19.97
2018-11-21T12:01:13.931Z,25.63
2018-11-21T12:04:20.984Z,26.20
2018-11-21T12:07:17.663Z,29.93
2018-11-21T12:10:24.492Z,32.40
2018-11-21T12:13:31.279Z,25.80
2018-11-21T12:16:38.062Z,32.10
2018-11-21T12:19:44.926Z,32.03
2018-11-21T12:22:51.717Z,33.33
2018-11-21T12:25:39.375Z,26.97
2018-11-21T12:28:46.204Z,33.87
2018-11-21T12:31:53.013Z,34.03
2018-11-21T12:35:00.082Z,29.97
2018-11-21T12:38:06.893Z,36.93
2018-11-21T12:41:13.665Z,34.93
2018-11-21T12:44:20.475Z,34.03
2018-11-21T12:47:27.542Z,33.03
2018-11-21T12:50:34.316Z,34.87
2018-11-21T12:53:41.128Z,30.17
2018-11-21T12:56:47.956Z,31.17
2018-11-21T12:59:54.728Z,43.03
2018-11-21T13:02:51.980Z,34.03
2018-11-21T13:05:48.872Z,35.83
2018-11-21T13:08:55.656Z,37.27
2018-11-21T13:12:02.530Z,36.20
2018-11-21T13:15:09.369Z,37.33
2018-11-21T13:18:06.886Z,36.83
2018-11-21T13:21:01.386Z,31.93
2018-11-21T13:23:49.590Z,32.40
2018-11-21T13:26:48.058Z,37.93
2018-11-21T13:29:54.094Z,38.90
2018-11-21T13:32:53.842Z,39.77
2018-11-21T13:35:53.957Z,43.60
2018-11-21T13:38:53.859Z,41.67
2018-11-21T13:41:46.536Z,41.03
2018-11-21T13:44:51.680Z,42.07
2018-11-21T13:47:51.265Z,48.17
2018-11-21T13:50:50.645Z,42.30
2018-11-21T13:53:53.450Z,45.60
2018-11-21T13:56:21.578Z,44.50
2018-11-21T13:59:09.444Z,38.37
2018-11-21T14:01:57.012Z,44.03
2018-11-21T14:04:44.707Z,46.10
2018-11-21T14:07:32.555Z,46.87
2018-11-21T14:10:20.368Z,44.60
2018-11-21T14:13:08.004Z,51.80
2018-11-21T14:15:55.568Z,48.83
2018-11-21T14:18:43.280Z,56.87
2018-11-21T14:21:31.003Z,47.23
2018-11-21T14:24:18.596Z,48.90
2018-11-21T14:27:06.506Z,48.10
2018-11-21T14:29:54.133Z,47.80
2018-11-21T14:32:43.233Z,46.97
2018-11-21T14:35:29.894Z,56.10
2018-11-21T14:38:17.284Z,52.50
2018-11-21T14:41:04.920Z,52.80
2018-11-21T14:43:52.780Z,47.83
2018-11-21T14:46:41.064Z,49.00
2018-11-21T14:49:28.890Z,46.63
2018-11-21T14:52:16.514Z,51.17
2018-11-21T14:55:04.435Z,56.20
2018-11-21T14:57:52.532Z,51.13
2018-11-21T15:00:40.497Z,50.07
2018-11-21T15:03:28.079Z,56.53
2018-11-21T15:06:15.643Z,56.00
2018-11-21T15:09:03.379Z,54.80
2018-11-21T15:11:51.180Z,56.20
2018-11-21T15:14:38.934Z,50.80
2018-11-21T15:17:26.981Z,57.03
2018-11-21T15:20:15.969Z,53.57
2018-11-21T15:23:03.581Z,51.63
2018-11-21T15:25:51.614Z,53.60
2018-11-21T15:28:39.251Z,51.70
2018-11-21T15:31:26.865Z,73.10
2018-11-21T15:34:14.684Z,57.90
2018-11-21T15:37:02.732Z,57.33
2018-11-21T15:39:50.317Z,65.57
2018-11-21T15:42:37.885Z,66.70
2018-11-21T15:45:26.167Z,59.43
2018-11-21T15:48:13.782Z,61.00
2018-11-21T15:51:01.319Z,70.43
2018-11-21T15:53:49.085Z,59.60
2018-11-21T15:56:36.845Z,59.70
2018-11-21T15:59:24.424Z,62.13
2018-11-21T16:02:12.247Z,66.70
2018-11-21T16:05:04.525Z,63.50
2018-11-21T16:07:54.353Z,59.27
2018-11-21T16:10:44.477Z,61.37
2018-11-21T16:13:32.471Z,59.87
2018-11-21T16:16:00.662Z,82.13
2018-11-21T16:18:48.460Z,77.87
2018-11-21T16:21:36.279Z,73.17
2018-11-21T16:24:25.757Z,65.67
2018-11-21T16:27:15.344Z,67.33
2018-11-21T16:30:02.910Z,72.07
2018-11-21T16:32:50.699Z,67.63
2018-11-21T16:35:38.808Z,74.10
2018-11-21T16:38:26.407Z,72.07
2018-11-21T16:41:13.992Z,69.50
2018-11-21T16:44:01.870Z,58.33
2018-11-21T16:46:49.415Z,60.27
2018-11-21T16:49:17.783Z,77.23
2018-11-21T16:52:05.623Z,67.50
2018-11-21T16:54:53.234Z,62.53
2018-11-21T16:57:40.953Z,66.97
2018-11-21T17:00:29.617Z,67.20
2018-11-21T17:03:17.206Z,60.80
2018-11-21T17:05:45.619Z,68.07
2018-11-21T17:08:13.714Z,62.83
2018-11-21T17:11:01.544Z,67.07
2018-11-21T17:13:49.316Z,66.43
2018-11-21T17:16:36.910Z,68.43
2018-11-21T17:19:24.488Z,63.00
2018-11-21T17:22:12.285Z,69.30
2018-11-21T17:25:00.371Z,69.10
2018-11-21T17:27:48.344Z,63.93
2018-11-21T17:30:36.147Z,72.73
2018-11-21T17:33:23.969Z,65.13
2018-11-21T17:36:11.528Z,67.17
2018-11-21T17:38:59.617Z,62.20
2018-11-21T17:41:47.464Z,63.60
2018-11-21T17:44:35.338Z,73.47
2018-11-21T17:47:22.700Z,74.80
2018-11-21T17:50:11.638Z,68.10
2018-11-21T17:53:00.691Z,60.80
2018-11-21T17:55:48.721Z,62.33
2018-11-21T17:58:36.271Z,69.57
2018-11-21T18:01:24.166Z,62.77
2018-11-21T18:04:11.851Z,69.93
2018-11-21T18:06:59.636Z,64.50
2018-11-21T18:09:47.197Z,59.80
2018-11-21T18:12:35.115Z,62.17
2018-11-21T18:15:03.278Z,58.50
2018-11-21T18:17:50.915Z,69.40
2018-11-21T18:20:38.564Z,65.53
2018-11-21T18:23:26.352Z,63.00
2018-11-21T18:26:13.915Z,71.00
2018-11-21T18:29:01.740Z,69.10
2018-11-21T18:31:49.602Z,63.80
2018-11-21T18:34:37.202Z,67.50
2018-11-21T18:37:24.778Z,65.43
2018-11-21T18:40:17.018Z,61.00
2018-11-21T18:43:05.077Z,73.73
2018-11-21T18:45:35.663Z,61.73
2018-11-21T18:48:23.485Z,66.03
2018-11-21T18:51:11.040Z,68.90
2018-11-21T18:53:59.041Z,64.53
2018-11-21T18:56:52.107Z,67.60
2018-11-21T18:59:59.179Z,61.70
2018-11-21T19:02:46.766Z,64.13
2018-11-21T19:05:34.680Z,66.83
2018-11-21T19:08:22.274Z,64.73
2018-11-21T19:11:02.659Z,64.63
2018-11-21T19:13:43.723Z,59.50
2018-11-21T19:16:24.367Z,63.77
2018-11-21T19:19:05.068Z,66.93
2018-11-21T19:21:33.227Z,60.87
2018-11-21T19:24:01.312Z,66.87
2018-11-21T19:26:29.472Z,65.30
2018-11-21T19:29:17.319Z,65.93
2018-11-21T19:32:05.020Z,64.20
2018-11-21T19:34:52.558Z,63.23
2018-11-21T19:37:40.400Z,66.90
2018-11-21T19:40:27.944Z,55.87
2018-11-21T19:43:15.723Z,60.20
2018-11-21T19:46:03.332Z,65.03
2018-11-21T19:48:50.907Z,64.33
2018-11-21T19:51:38.497Z,65.93
2018-11-21T19:54:26.047Z,61.57
2018-11-21T19:57:13.861Z,58.27
2018-11-21T20:00:01.406Z,66.80
2018-11-21T20:02:49.225Z,55.53
2018-11-21T20:05:17.572Z,68.33
2018-11-21T20:08:05.642Z,58.07
2018-11-21T20:10:53.485Z,59.27
2018-11-21T20:13:41.543Z,52.30
2018-11-21T20:16:29.333Z,53.70
2018-11-21T20:19:16.968Z,56.30
2018-11-21T20:22:04.683Z,52.57
2018-11-21T20:24:52.527Z,47.60
2018-11-21T20:27:40.298Z,52.13
2018-11-21T20:30:48.712Z,50.33
2018-11-21T20:36:26.198Z,42.47
2018-11-21T20:42:30.349Z,42.10
2018-11-21T20:45:17.703Z,38.13
2018-11-21T20:48:13.308Z,51.03
2018-11-21T20:51:04.141Z,42.70
2018-11-21T20:53:51.859Z,48.63
2018-11-21T20:56:42.550Z,40.47
2018-11-21T20:59:30.326Z,43.40
2018-11-21T21:02:18.369Z,38.67
2018-11-21T21:05:06.749Z,41.50
2018-11-21T21:08:13.514Z,47.50
2018-11-21T21:11:01.528Z,44.20
2018-11-21T21:13:51.709Z,42.80
2018-11-21T21:16:39.494Z,44.60
2018-11-21T21:19:27.394Z,42.70
2018-11-21T21:22:18.468Z,43.07
